Estación Meteorológica Peña el Pijo (Robertgarden) [ 02/03/23 04:50:23 CET ]

Fecha Hora Presion(HPa) Temp (°C) Humedad % Rocio (°C) Viento ( m/s) Direccion Lluvia 1Hora(mm) Lluvia 24H(mm) LLuvia Total(mm)
2012-May-11 01:01:17 1018.900 11.9 63 5.1         158.50
2012-May-11 02:01:19 1019.000 10.7 67 4.8         158.50
2012-May-11 03:03:23 1019.000 9.6 72 4.8         158.50
2012-May-11 04:01:13 1018.600 8.9 74 4.5         158.50
2012-May-11 05:01:18 1018.500 8.6 77 4.8         158.50
2012-May-11 06:01:17 1018.400 8.1 78 4.5         158.50
2012-May-11 07:01:14 1018.500 7.5 80 4.3         158.50
2012-May-11 08:01:13 1019.000 9.0 82 6.1         158.50
2012-May-11 09:01:18 1019.000 15.9 63 8.9         158.50
2012-May-11 10:01:13 1019.200 21.9 42 8.4         158.50
2012-May-11 11:01:18 1018.700 25.6 35 8.9         158.50
2012-May-11 12:01:14 1018.700 28.1 24 5.4 2.5 NNE     158.50
2012-May-11 13:01:17 1018.800 29.5 21 4.8 2.6 N     158.50
2012-May-11 14:01:13 1018.800 28.9 22 4.9 1.8 E     158.50
2012-May-11 15:01:12 1018.500 30.6 20 5.1         158.50
2012-May-11 16:01:14 1018.400 31.8 19 5.2         158.50
2012-May-11 17:01:12 1018.000 32.1 20 6.4         158.50
2012-May-11 18:01:18 1017.900 31.7 20 6.1 0.9 E     158.50
2012-May-11 19:01:18 1017.900 29.5 23 6.0         158.50
2012-May-11 20:01:14 1018.100 26.0 30 7.1 0.7 E     158.50
2012-May-11 21:01:14 1018.700 23.3 36 7.3         158.50
2012-May-11 22:01:16 1019.400 19.9 43 6.9         158.50
2012-May-11 23:01:16 1020.300 16.4 53 6.8         158.50

Temperatura Máxima:32°    Temperatura Mínima:
Presión Máxima:1020.300 Hpa    Presión Mínima:1017.900 Hpa


Volver